Cedar Vale, Kansas
Current Conditions -  °F | °C
As of 4:54 PM on Tuesday 21 Oct 2014 (Local Time) from KWLD Reporting Station
Few Clouds Few Clouds  
Wind Chill: 78°   Ceiling: Unl
Heat Index: 80°   Visibility: 10mi
Dew Point: 61°   Wind: 6mph
Humidity: 56%   Direction: 160°SSE
Pressure: 30.02"   Gusts: NA
Location:  37.1°N, 96.5°W
Report Text: KWLD 212154Z AUTO 16005KT 10SM FEW048 26/16 A3002 RMK AO2 SLP160 T02560161
Loading
Personal Weather Stations






























Interactive Weather Map
Tropical Storm Tracking
New forecast layout! Learn more

10-Day Weather Forecast

Advertisements
Track Severe Weather on mobile